Time;durP1;ratioP1;P1;durP2;ratioP2;P2;SDS_P1;SDS_P2;PMS_P1;PMS_P2;Temp;Humidity;BMP_temperature;BMP_pressure;BME280_temperature;BME280_humidity;BME280_pressure;Samples;Min_cycle;Max_cycle;Signal;HPM_P1;HPM_P2
2021/09/01 00:01:37;;;;;;;27.85;15.88;;;12.80;99.90;;;;;;5083300;28;20200;-79
2021/09/01 00:04:04;;;;;;;20.08;14.45;;;12.80;99.90;;;;;;5081060;28;20204;-79
2021/09/01 00:06:32;;;;;;;19.77;15.55;;;12.80;99.90;;;;;;5077412;28;20612;-80
2021/09/01 00:09:00;;;;;;;23.73;14.90;;;12.70;99.90;;;;;;5075052;28;20605;-80
2021/09/01 00:11:28;;;;;;;21.58;16.05;;;12.70;99.90;;;;;;5087046;28;20200;-79
2021/09/01 00:13:55;;;;;;;25.23;15.82;;;12.70;99.90;;;;;;5097833;28;20227;-79
2021/09/01 00:16:28;;;;;;;23.40;16.45;;;12.60;99.90;;;;;;5097775;28;20224;-79
2021/09/01 00:18:56;;;;;;;19.35;15.13;;;12.60;99.90;;;;;;5089693;28;20235;-79
2021/09/01 00:21:23;;;;;;;22.45;15.57;;;12.60;99.90;;;;;;5081866;28;20228;-80
2021/09/01 00:23:51;;;;;;;19.90;15.13;;;12.60;99.90;;;;;;5084647;28;20217;-80
2021/09/01 00:26:20;;;;;;;19.98;15.65;;;12.50;99.90;;;;;;5093090;28;20205;-79
2021/09/01 00:28:47;;;;;;;21.02;15.80;;;12.50;99.90;;;;;;5083903;28;20233;-80
2021/09/01 00:31:14;;;;;;;26.58;16.27;;;12.50;99.90;;;;;;5086683;28;20242;-80
2021/09/01 00:33:41;;;;;;;22.00;15.35;;;12.50;99.90;;;;;;5084801;28;20248;-80
2021/09/01 00:36:08;;;;;;;25.45;15.70;;;12.50;99.90;;;;;;5080451;28;20202;-79
2021/09/01 00:38:35;;;;;;;22.08;15.73;;;12.40;99.90;;;;;;5088194;28;20264;-80
2021/09/01 00:41:02;;;;;;;24.85;16.90;;;12.40;99.90;;;;;;5087992;28;20215;-80
2021/09/01 00:43:31;;;;;;;22.08;15.38;;;12.40;99.90;;;;;;5081798;28;20207;-80
2021/09/01 00:46:05;;;;;;;21.65;16.02;;;12.40;99.90;;;;;;5083943;28;20261;-79
2021/09/01 00:48:32;;;;;;;24.05;14.35;;;12.40;99.90;;;;;;5086555;28;20281;-80
2021/09/01 00:50:59;;;;;;;22.35;16.85;;;12.40;99.90;;;;;;5085999;28;20208;-80
2021/09/01 00:53:29;;;;;;;21.55;14.85;;;12.40;99.90;;;;;;5088360;28;20234;-79
2021/09/01 00:55:57;;;;;;;19.60;14.70;;;12.40;99.90;;;;;;5110485;28;20269;-79
2021/09/01 00:58:24;;;;;;;21.83;13.82;;;12.40;99.90;;;;;;5105940;28;20419;-79
2021/09/01 01:01:08;;;;;;;19.92;14.70;;;12.40;99.90;;;;;;5104588;28;20214;-80
2021/09/01 01:03:36;;;;;;;24.35;14.70;;;12.40;99.90;;;;;;5096856;28;20201;-79
2021/09/01 01:06:03;;;;;;;19.55;14.10;;;12.40;99.90;;;;;;5089425;28;20188;-80
2021/09/01 01:08:33;;;;;;;22.45;16.08;;;12.30;99.90;;;;;;5091716;28;20211;-81
2021/09/01 01:11:01;;;;;;;19.85;15.15;;;12.30;99.90;;;;;;5087057;28;20218;-79
2021/09/01 01:13:28;;;;;;;25.88;15.38;;;12.30;99.90;;;;;;5084447;28;20314;-81
2021/09/01 01:15:57;;;;;;;20.02;14.82;;;12.20;99.90;;;;;;5098527;28;20215;-79
2021/09/01 01:18:24;;;;;;;21.25;15.23;;;12.20;99.90;;;;;;5097869;28;20292;-79
2021/09/01 01:20:55;;;;;;;23.80;15.88;;;12.20;99.90;;;;;;5098262;28;20292;-79
2021/09/01 01:23:23;;;;;;;22.60;16.45;;;12.20;99.90;;;;;;5101912;28;20221;-80
2021/09/01 01:25:53;;;;;;;20.52;15.52;;;12.20;99.90;;;;;;5100330;28;20247;-81
2021/09/01 01:28:20;;;;;;;22.23;16.45;;;12.10;99.90;;;;;;5098059;28;20230;-80
2021/09/01 01:30:47;;;;;;;27.58;16.58;;;12.10;99.90;;;;;;5057076;28;20298;-79
2021/09/01 01:33:14;;;;;;;28.52;16.60;;;12.10;99.90;;;;;;5061191;28;20230;-81
2021/09/01 01:35:43;;;;;;;31.00;17.50;;;12.10;99.90;;;;;;5112250;28;20256;-82
2021/09/01 01:38:11;;;;;;;27.30;16.35;;;12.00;99.90;;;;;;5119654;28;20214;-83
2021/09/01 01:40:40;;;;;;;23.08;17.08;;;12.00;99.90;;;;;;5118319;28;20203;-83
2021/09/01 01:43:08;;;;;;;27.80;17.02;;;12.00;99.90;;;;;;5105648;27;20175;-81
2021/09/01 01:45:38;;;;;;;27.65;17.40;;;12.00;99.90;;;;;;5087673;28;20218;-79
2021/09/01 01:48:06;;;;;;;24.92;17.58;;;12.00;99.90;;;;;;5086672;28;20246;-82
2021/09/01 01:50:34;;;;;;;28.65;18.25;;;11.90;99.90;;;;;;5108508;28;20205;-81
2021/09/01 01:53:05;;;;;;;28.65;18.13;;;11.90;99.90;;;;;;5118945;28;20198;-81
2021/09/01 01:55:32;;;;;;;26.52;16.92;;;11.90;99.90;;;;;;5114537;28;20267;-80
2021/09/01 01:57:59;;;;;;;29.80;17.83;;;11.90;99.90;;;;;;5111311;28;20204;-82
2021/09/01 02:00:28;;;;;;;28.23;17.02;;;11.80;99.90;;;;;;5110055;28;20187;-82
2021/09/01 02:02:58;;;;;;;25.30;15.85;;;11.80;99.90;;;;;;5097414;28;20198;-81
2021/09/01 02:05:25;;;;;;;25.75;17.40;;;11.80;99.90;;;;;;5094025;28;20213;-80
2021/09/01 02:07:52;;;;;;;23.42;16.33;;;11.80;99.90;;;;;;5113988;28;20215;-79
2021/09/01 02:10:19;;;;;;;29.98;16.50;;;11.70;99.90;;;;;;5118459;28;20209;-82
2021/09/01 02:12:46;;;;;;;27.73;15.90;;;11.70;99.90;;;;;;5119013;27;20209;-82
2021/09/01 02:15:13;;;;;;;22.23;15.80;;;11.70;99.90;;;;;;5119086;28;20209;-82
2021/09/01 02:17:42;;;;;;;24.45;16.33;;;11.70;99.90;;;;;;5116658;28;20183;-81
2021/09/01 02:20:11;;;;;;;24.02;15.73;;;11.60;99.90;;;;;;5108152;28;20206;-80
2021/09/01 02:22:40;;;;;;;28.15;16.33;;;11.60;99.90;;;;;;5096593;28;20245;-80
2021/09/01 02:25:09;;;;;;;26.13;17.08;;;11.60;99.90;;;;;;5097031;28;20251;-80
2021/09/01 02:27:36;;;;;;;26.55;16.70;;;11.60;99.90;;;;;;5096475;28;20300;-80
2021/09/01 02:30:05;;;;;;;25.67;16.85;;;11.50;99.90;;;;;;5098322;28;20259;-79
2021/09/01 02:32:32;;;;;;;26.08;16.80;;;11.50;99.90;;;;;;5080534;28;20621;-79
2021/09/01 02:35:01;;;;;;;28.38;17.73;;;11.50;99.90;;;;;;5081626;28;20226;-79
2021/09/01 02:37:28;;;;;;;28.08;17.52;;;11.50;99.90;;;;;;5078480;28;20242;-79
2021/09/01 02:39:55;;;;;;;28.98;17.85;;;11.50;99.90;;;;;;5076351;28;20253;-79
2021/09/01 02:42:23;;;;;;;24.13;16.75;;;11.50;99.90;;;;;;5075482;28;20285;-80
2021/09/01 02:44:50;;;;;;;22.40;16.48;;;11.40;99.90;;;;;;5075497;28;20206;-80
2021/09/01 02:47:17;;;;;;;33.05;18.33;;;11.50;99.90;;;;;;5074909;28;20765;-79
2021/09/01 02:49:44;;;;;;;25.67;17.75;;;11.40;99.90;;;;;;5090415;28;20253;-80
2021/09/01 02:52:12;;;;;;;30.27;17.20;;;11.40;99.90;;;;;;5101537;28;20209;-80
2021/09/01 02:54:39;;;;;;;25.15;16.60;;;11.40;99.90;;;;;;5096478;28;20236;-79
2021/09/01 02:57:06;;;;;;;27.70;17.52;;;11.40;99.90;;;;;;5092395;28;20301;-79
2021/09/01 02:59:32;;;;;;;25.92;17.95;;;11.40;99.90;;;;;;5086768;28;20252;-80
2021/09/01 03:01:59;;;;;;;24.65;16.52;;;11.40;99.90;;;;;;5083014;28;20284;-79
2021/09/01 03:04:26;;;;;;;25.13;16.52;;;11.40;99.90;;;;;;5081026;28;20271;-79
2021/09/01 03:06:53;;;;;;;30.35;18.58;;;11.40;99.90;;;;;;5081183;28;20229;-80
2021/09/01 03:09:22;;;;;;;29.08;18.80;;;11.30;99.90;;;;;;5085412;28;20225;-81
2021/09/01 03:11:48;;;;;;;29.15;17.77;;;11.30;99.90;;;;;;5102099;28;20205;-81
2021/09/01 03:14:15;;;;;;;22.20;15.73;;;11.30;99.90;;;;;;5105535;28;20250;-79
2021/09/01 03:16:42;;;;;;;24.67;16.77;;;11.30;99.90;;;;;;5102936;28;20301;-80
2021/09/01 03:19:09;;;;;;;25.15;15.98;;;11.30;99.90;;;;;;5103374;28;20236;-80
2021/09/01 03:21:36;;;;;;;23.02;14.65;;;11.30;99.90;;;;;;5096673;28;20217;-81
2021/09/01 03:24:03;;;;;;;24.75;18.02;;;11.30;99.90;;;;;;5093861;28;20202;-81
2021/09/01 03:26:32;;;;;;;25.58;17.10;;;11.30;99.90;;;;;;5104164;28;20228;-80
2021/09/01 03:28:59;;;;;;;25.63;17.27;;;11.30;99.90;;;;;;5104949;28;20263;-80
2021/09/01 03:31:26;;;;;;;26.75;16.45;;;11.30;99.90;;;;;;5090616;28;20245;-80
2021/09/01 03:33:53;;;;;;;24.77;16.48;;;11.30;99.90;;;;;;5079102;28;20244;-80
2021/09/01 03:36:20;;;;;;;23.38;16.00;;;11.20;99.90;;;;;;5085752;28;20201;-80
2021/09/01 03:38:47;;;;;;;26.25;16.42;;;11.20;99.90;;;;;;5099208;28;20655;-81
2021/09/01 03:41:15;;;;;;;23.85;15.68;;;11.20;99.90;;;;;;5097770;28;20236;-79
2021/09/01 03:43:43;;;;;;;25.17;15.30;;;11.10;99.90;;;;;;5096954;28;20294;-79
2021/09/01 03:46:10;;;;;;;22.73;15.25;;;11.10;99.90;;;;;;5093872;28;20253;-81
2021/09/01 03:48:37;;;;;;;24.15;16.73;;;11.10;99.90;;;;;;5076375;28;20273;-79
2021/09/01 03:51:04;;;;;;;24.15;15.50;;;11.10;99.90;;;;;;5078389;28;20229;-81
2021/09/01 03:53:31;;;;;;;26.52;16.23;;;11.00;99.90;;;;;;5099368;28;20205;-80
2021/09/01 03:55:57;;;;;;;23.80;16.25;;;11.10;99.90;;;;;;5100239;28;20286;-80
2021/09/01 03:58:24;;;;;;;25.40;16.02;;;11.10;99.90;;;;;;5103943;28;20269;-80
2021/09/01 04:00:53;;;;;;;25.45;15.40;;;11.10;99.90;;;;;;5104420;28;20220;-80
2021/09/01 04:03:20;;;;;;;26.67;16.70;;;11.10;99.90;;;;;;5061944;28;20199;-81
2021/09/01 04:05:47;;;;;;;27.02;16.75;;;11.00;99.90;;;;;;5060571;28;20629;-79
2021/09/01 04:08:14;;;;;;;23.40;16.38;;;11.00;99.90;;;;;;5099835;28;20248;-81
2021/09/01 04:10:41;;;;;;;26.30;17.10;;;10.90;99.90;;;;;;5104966;28;20295;-80
2021/09/01 04:13:08;;;;;;;28.92;16.33;;;10.90;99.90;;;;;;5086732;28;20213;-81
2021/09/01 04:15:35;;;;;;;22.45;15.05;;;10.90;99.90;;;;;;5085173;28;20305;-81
2021/09/01 04:18:03;;;;;;;28.90;15.32;;;10.90;99.90;;;;;;5084356;28;20221;-80
2021/09/01 04:20:30;;;;;;;24.45;15.48;;;10.90;99.90;;;;;;5083242;28;20229;-80
2021/09/01 04:22:57;;;;;;;20.67;14.18;;;10.90;99.90;;;;;;5095520;28;20216;-81
2021/09/01 04:25:24;;;;;;;26.50;16.50;;;10.80;99.90;;;;;;5101445;28;20198;-80
2021/09/01 04:27:53;;;;;;;25.77;16.65;;;10.80;99.90;;;;;;5114552;28;20256;-80
2021/09/01 04:30:20;;;;;;;25.27;16.30;;;10.80;99.90;;;;;;5121545;28;20193;-81
2021/09/01 04:32:46;;;;;;;20.25;13.65;;;10.80;99.90;;;;;;5098039;28;20820;-80
2021/09/01 04:35:15;;;;;;;21.38;15.07;;;10.80;99.90;;;;;;5104362;28;20256;-79
2021/09/01 04:37:42;;;;;;;21.63;14.70;;;10.80;99.90;;;;;;5089310;28;20206;-80
2021/09/01 04:40:10;;;;;;;26.35;15.60;;;10.80;99.90;;;;;;5086541;28;20206;-79
2021/09/01 04:42:37;;;;;;;23.92;15.00;;;10.80;99.90;;;;;;5084869;28;20206;-79
2021/09/01 04:45:04;;;;;;;24.60;15.63;;;10.80;99.90;;;;;;5085754;28;20206;-80
2021/09/01 04:47:31;;;;;;;26.15;16.50;;;10.80;99.90;;;;;;5087347;28;20206;-80
2021/09/01 04:49:58;;;;;;;27.90;16.30;;;10.80;99.90;;;;;;5089038;28;20233;-79
2021/09/01 04:52:26;;;;;;;24.33;16.27;;;10.80;99.90;;;;;;5093243;28;20198;-80
2021/09/01 04:54:53;;;;;;;24.70;15.93;;;10.80;99.90;;;;;;5095633;28;20229;-80
2021/09/01 04:57:20;;;;;;;25.58;16.63;;;10.80;99.90;;;;;;5111114;28;20205;-79
2021/09/01 04:59:48;;;;;;;27.25;17.48;;;10.80;99.90;;;;;;5114590;28;20229;-80
2021/09/01 05:02:14;;;;;;;24.70;16.38;;;10.80;99.90;;;;;;5104244;28;20215;-80
2021/09/01 05:04:41;;;;;;;20.02;14.30;;;10.90;99.90;;;;;;5100895;28;20182;-81
2021/09/01 05:07:09;;;;;;;29.17;15.93;;;10.90;99.90;;;;;;5101532;28;20185;-80
2021/09/01 05:09:37;;;;;;;23.90;16.15;;;10.90;99.90;;;;;;5100985;28;20210;-79
2021/09/01 05:12:05;;;;;;;25.70;17.02;;;10.90;99.90;;;;;;5100987;28;20182;-80
2021/09/01 05:14:32;;;;;;;25.65;16.33;;;10.90;99.90;;;;;;5101027;28;20190;-80
2021/09/01 05:16:59;;;;;;;34.55;19.38;;;11.00;99.90;;;;;;5099381;28;20187;-80
2021/09/01 05:19:26;;;;;;;35.45;19.70;;;11.20;99.90;;;;;;5094133;28;20247;-81
2021/09/01 05:21:55;;;;;;;33.72;20.15;;;11.50;99.90;;;;;;5093429;28;20270;-81
2021/09/01 05:24:30;;;;;;;32.80;19.52;;;11.60;99.90;;;;;;5092632;28;20210;-80
2021/09/01 05:27:08;;;;;;;28.55;18.77;;;11.60;99.90;;;;;;5101953;28;20199;-79
2021/09/01 05:29:41;;;;;;;23.00;15.90;;;11.70;99.90;;;;;;5093305;28;20276;-81
2021/09/01 05:32:17;;;;;;;19.27;13.32;;;11.90;99.90;;;;;;5080881;28;20204;-79
2021/09/01 05:34:45;;;;;;;17.08;13.57;;;11.90;99.90;;;;;;5087770;28;20198;-80
2021/09/01 05:37:14;;;;;;;20.85;12.98;;;12.10;99.90;;;;;;5106264;28;20675;-79
2021/09/01 05:39:44;;;;;;;16.77;12.07;;;12.30;99.90;;;;;;5104656;28;20318;-79
2021/09/01 05:42:14;;;;;;;14.82;11.63;;;12.50;99.90;;;;;;5113925;28;20222;-80
2021/09/01 05:44:42;;;;;;;17.45;11.50;;;12.70;99.90;;;;;;5110236;28;20234;-79
2021/09/01 05:47:09;;;;;;;15.32;10.93;;;12.80;99.90;;;;;;5092823;28;20213;-80
2021/09/01 05:49:38;;;;;;;15.57;10.23;;;13.20;99.90;;;;;;5083817;28;20300;-80
2021/09/01 05:52:06;;;;;;;12.63;10.07;;;13.20;99.90;;;;;;5081477;28;20732;-80
2021/09/01 05:54:34;;;;;;;13.93;10.05;;;13.30;99.20;;;;;;5080161;28;20668;-81
2021/09/01 05:57:08;;;;;;;14.07;10.25;;;13.70;98.70;;;;;;5079730;28;20209;-81
2021/09/01 05:59:43;;;;;;;12.40;9.77;;;13.70;94.60;;;;;;5085184;28;20243;-80
2021/09/01 06:02:17;;;;;;;14.30;10.23;;;13.80;94.10;;;;;;5084137;28;20208;-81
2021/09/01 06:04:46;;;;;;;10.77;9.27;;;14.00;93.40;;;;;;5089305;28;20189;-80
2021/09/01 06:07:14;;;;;;;11.55;9.50;;;14.20;91.70;;;;;;5085213;28;20206;-80
2021/09/01 06:09:43;;;;;;;12.48;9.30;;;14.40;91.40;;;;;;5081300;28;20235;-80
2021/09/01 06:12:16;;;;;;;10.93;9.27;;;14.50;90.10;;;;;;5076789;28;20209;-79
2021/09/01 06:14:44;;;;;;;11.75;9.15;;;14.50;89.60;;;;;;5075029;28;20225;-79
2021/09/01 06:17:11;;;;;;;16.80;9.80;;;14.00;90.80;;;;;;5076331;28;20240;-80
2021/09/01 06:19:39;;;;;;;12.57;10.27;;;13.70;92.40;;;;;;5077075;28;20237;-80
2021/09/01 06:22:07;;;;;;;13.23;10.85;;;13.50;94.10;;;;;;5077715;28;20243;-80
2021/09/01 06:24:34;;;;;;;12.98;10.75;;;13.50;95.40;;;;;;5077743;28;20299;-80
2021/09/01 06:27:02;;;;;;;13.15;10.80;;;13.60;96.10;;;;;;5077783;28;20239;-81
2021/09/01 06:29:29;;;;;;;15.43;11.10;;;13.50;96.80;;;;;;5034859;28;1231753;-84
2021/09/01 06:32:00;;;;;;;17.27;11.73;;;13.50;96.40;;;;;;5079547;28;20262;-81
2021/09/01 06:34:28;;;;;;;15.52;11.43;;;13.50;97.30;;;;;;5082271;28;20193;-79
2021/09/01 06:36:55;;;;;;;16.55;11.38;;;13.60;98.00;;;;;;5098818;28;20255;-78
2021/09/01 06:39:21;;;;;;;16.10;11.75;;;13.70;98.10;;;;;;5116043;28;20228;-80
2021/09/01 06:41:48;;;;;;;12.85;11.50;;;13.90;97.40;;;;;;5119063;28;20201;-82
2021/09/01 06:44:15;;;;;;;18.60;12.40;;;13.90;97.40;;;;;;5117888;28;20212;-80
2021/09/01 06:46:42;;;;;;;18.08;13.40;;;13.90;98.30;;;;;;5105784;28;20203;-79
2021/09/01 06:49:11;;;;;;;17.88;12.45;;;14.00;98.80;;;;;;5101882;28;20280;-79
2021/09/01 06:51:38;;;;;;;18.25;12.52;;;14.00;98.60;;;;;;5099483;28;20284;-81
2021/09/01 06:54:05;;;;;;;16.60;13.43;;;14.10;99.60;;;;;;5076211;28;20244;-80
2021/09/01 06:56:32;;;;;;;19.67;14.15;;;14.10;99.20;;;;;;5094952;28;20228;-79
2021/09/01 06:58:59;;;;;;;16.58;12.40;;;14.20;99.70;;;;;;5098766;28;20249;-81
2021/09/01 07:01:26;;;;;;;18.48;12.90;;;14.30;99.30;;;;;;5086962;28;20209;-80
2021/09/01 07:03:55;;;;;;;16.67;12.40;;;14.50;99.20;;;;;;5083171;28;20284;-79
2021/09/01 07:06:23;;;;;;;17.70;12.35;;;14.60;98.60;;;;;;5083417;28;20206;-80
2021/09/01 07:08:51;;;;;;;16.10;12.18;;;14.60;98.50;;;;;;5090798;28;20232;-83
2021/09/01 07:11:18;;;;;;;17.92;12.77;;;14.70;97.70;;;;;;5090592;28;20661;-83
2021/09/01 07:13:45;;;;;;;15.73;12.23;;;14.80;96.90;;;;;;5092655;28;20220;-84
2021/09/01 07:16:16;;;;;;;14.55;12.32;;;14.80;96.00;;;;;;5089505;28;20220;-82
2021/09/01 07:18:43;;;;;;;16.65;11.82;;;14.90;95.90;;;;;;5059803;28;20233;-83
2021/09/01 07:21:11;;;;;;;17.58;12.63;;;14.90;95.30;;;;;;5077081;28;20254;-82
2021/09/01 07:23:40;;;;;;;15.32;11.68;;;14.90;95.50;;;;;;5101494;28;20217;-83
2021/09/01 07:26:09;;;;;;;16.05;11.43;;;15.00;95.20;;;;;;5093169;28;20569;-82
2021/09/01 07:28:37;;;;;;;19.08;11.45;;;15.10;94.60;;;;;;5078651;28;20245;-82
2021/09/01 07:31:05;;;;;;;14.90;12.25;;;15.10;94.30;;;;;;5080587;28;20214;-82
2021/09/01 07:33:32;;;;;;;15.52;11.25;;;15.20;93.90;;;;;;5084661;28;20212;-84
2021/09/01 07:35:59;;;;;;;17.23;10.90;;;15.20;93.70;;;;;;5090196;28;20237;-83
2021/09/01 07:38:26;;;;;;;18.77;12.40;;;15.30;93.50;;;;;;5093421;28;20209;-85
2021/09/01 07:40:54;;;;;;;15.55;11.77;;;15.40;93.10;;;;;;5095162;28;20185;-84
2021/09/01 07:43:26;;;;;;;17.65;12.20;;;15.50;92.60;;;;;;5097167;28;20264;-83
2021/09/01 07:45:53;;;;;;;13.63;11.32;;;15.60;91.40;;;;;;5093041;28;20205;-81
2021/09/01 07:48:20;;;;;;;13.45;10.70;;;15.60;90.90;;;;;;5091533;28;20228;-82
2021/09/01 07:50:47;;;;;;;15.27;12.23;;;15.70;91.50;;;;;;5098911;28;20219;-83
2021/09/01 07:53:14;;;;;;;13.15;10.38;;;15.90;91.40;;;;;;5090771;28;20214;-82
2021/09/01 07:55:41;;;;;;;13.80;11.80;;;16.00;91.80;;;;;;5079257;28;20228;-83
2021/09/01 07:58:09;;;;;;;14.75;12.13;;;15.90;91.20;;;;;;5061028;28;20290;-82
2021/09/01 08:00:36;;;;;;;13.50;11.32;;;16.10;90.90;;;;;;5067591;28;20202;-82
2021/09/01 08:03:03;;;;;;;14.85;11.93;;;16.30;90.80;;;;;;5079485;28;20280;-82
2021/09/01 08:05:30;;;;;;;16.47;11.43;;;16.40;89.90;;;;;;5080036;28;20202;-82
2021/09/01 08:07:57;;;;;;;12.43;10.43;;;16.50;87.10;;;;;;5063998;28;20457;-82
2021/09/01 08:10:24;;;;;;;15.77;10.95;;;16.50;86.30;;;;;;5079363;28;20536;-82
2021/09/01 08:12:51;;;;;;;14.30;10.50;;;16.70;85.90;;;;;;5079295;28;20289;-82
2021/09/01 08:15:19;;;;;;;14.63;11.10;;;16.80;86.50;;;;;;5092683;28;20456;-84
2021/09/01 08:17:46;;;;;;;14.20;10.37;;;16.80;84.30;;;;;;5094797;28;20486;-84
2021/09/01 08:20:14;;;;;;;12.70;10.00;;;16.90;84.30;;;;;;5094950;28;20436;-83
2021/09/01 08:22:41;;;;;;;13.33;11.83;;;16.90;85.40;;;;;;5097572;28;20456;-83
2021/09/01 08:25:10;;;;;;;12.73;10.70;;;16.90;82.60;;;;;;5096355;28;20488;-84
2021/09/01 08:27:37;;;;;;;13.80;9.97;;;17.00;82.60;;;;;;5097326;28;20445;-83
2021/09/01 08:30:06;;;;;;;15.90;10.47;;;17.20;80.00;;;;;;5093818;28;20541;-81
2021/09/01 08:32:34;;;;;;;14.47;11.47;;;17.10;80.90;;;;;;5103339;28;20464;-84
2021/09/01 08:35:01;;;;;;;13.10;10.50;;;17.10;82.20;;;;;;5108644;28;20432;-82
2021/09/01 08:37:28;;;;;;;19.10;11.93;;;17.30;81.20;;;;;;5104788;28;20507;-82
2021/09/01 08:39:55;;;;;;;13.23;11.10;;;17.40;79.20;;;;;;5099294;28;20456;-82
2021/09/01 08:42:23;;;;;;;13.73;10.90;;;17.40;77.40;;;;;;5099497;28;20441;-83
2021/09/01 08:44:50;;;;;;;13.07;10.10;;;17.50;76.30;;;;;;5099903;28;20507;-77
2021/09/01 08:47:18;;;;;;;13.30;10.47;;;17.50;79.00;;;;;;5118189;28;20459;-77
2021/09/01 08:49:47;;;;;;;15.30;11.70;;;17.50;77.20;;;;;;5120173;28;20529;-78
2021/09/01 08:52:14;;;;;;;13.33;10.30;;;17.60;76.10;;;;;;5120308;28;20446;-76
2021/09/01 08:54:41;;;;;;;13.87;10.27;;;17.70;75.40;;;;;;5100863;28;20475;-76
2021/09/01 08:57:08;;;;;;;13.33;10.90;;;17.90;74.80;;;;;;5079636;28;20477;-77
2021/09/01 08:59:35;;;;;;;11.67;10.23;;;17.70;76.10;;;;;;5078112;28;20472;-77
2021/09/01 09:02:02;;;;;;;15.77;10.83;;;18.00;74.90;;;;;;5082646;28;20526;-76
2021/09/01 09:04:32;;;;;;;16.90;11.10;;;18.10;73.10;;;;;;5078094;28;20538;-77
2021/09/01 09:07:02;;;;;;;13.00;10.33;;;17.90;74.00;;;;;;5096279;28;20541;-76
2021/09/01 09:09:31;;;;;;;12.97;11.67;;;17.90;74.80;;;;;;5100468;28;20500;-78
2021/09/01 09:12:00;;;;;;;15.43;10.40;;;17.90;74.80;;;;;;5098691;28;20457;-76
2021/09/01 09:14:30;;;;;;;12.60;11.30;;;18.20;73.70;;;;;;5098726;28;20454;-77
2021/09/01 09:17:03;;;;;;;13.33;10.43;;;18.20;73.40;;;;;;5096232;28;20492;-78
2021/09/01 09:19:52;;;;;;;18.87;10.53;;;18.20;73.30;;;;;;5096472;28;20555;-77
2021/09/01 09:22:25;;;;;;;12.57;9.93;;;18.50;70.90;;;;;;5074957;28;20944;-78
2021/09/01 09:25:07;;;;;;;12.40;9.33;;;18.60;70.50;;;;;;5086036;28;20566;-78
2021/09/01 09:27:38;;;;;;;11.37;10.17;;;18.70;70.60;;;;;;5076603;28;20455;-78
2021/09/01 09:30:31;;;;;;;10.80;8.57;;;18.90;68.90;;;;;;5084480;22;20536;-78
2021/09/01 09:32:59;;;;;;;10.60;9.50;;;19.00;67.30;;;;;;5051135;28;20456;-78
2021/09/01 09:35:27;;;;;;;10.13;7.93;;;19.00;66.90;;;;;;5067927;28;20472;-78
2021/09/01 09:38:03;;;;;;;10.50;9.00;;;19.10;67.00;;;;;;5068281;28;20547;-78
2021/09/01 09:40:32;;;;;;;9.20;7.73;;;19.20;67.10;;;;;;5028781;28;20488;-76
2021/09/01 09:43:12;;;;;;;8.77;7.80;;;19.40;66.40;;;;;;5016252;28;20470;-80
2021/09/01 09:45:38;;;;;;;12.40;8.40;;;19.50;65.80;;;;;;5019876;28;20561;-76
2021/09/01 09:48:06;;;;;;;10.20;9.13;;;19.50;65.00;;;;;;5020282;28;21075;-77
2021/09/01 09:50:33;;;;;;;9.13;7.50;;;19.50;64.70;;;;;;5024956;28;20477;-77
2021/09/01 09:53:02;;;;;;;9.20;8.23;;;19.50;64.80;;;;;;5029176;28;21040;-78
2021/09/01 09:55:29;;;;;;;9.17;7.77;;;19.50;63.60;;;;;;5061283;28;20555;-78
2021/09/01 09:57:57;;;;;;;9.00;7.43;;;19.40;65.10;;;;;;5058910;28;20531;-76
2021/09/01 10:00:27;;;;;;;10.77;7.50;;;19.70;64.80;;;;;;5041309;28;20482;-77
2021/09/01 10:02:54;;;;;;;9.20;8.30;;;19.60;63.70;;;;;;5042410;28;20546;-78
2021/09/01 10:05:23;;;;;;;9.97;8.27;;;19.40;66.40;;;;;;5031841;28;20544;-76
2021/09/01 10:07:50;;;;;;;9.97;8.07;;;19.60;64.70;;;;;;5032793;28;20452;-79
2021/09/01 10:10:19;;;;;;;7.93;7.13;;;19.80;63.90;;;;;;5030807;28;20487;-79
2021/09/01 10:12:47;;;;;;;8.73;7.80;;;19.90;63.40;;;;;;5025135;28;20467;-79
2021/09/01 10:15:20;;;;;;;9.13;7.77;;;20.10;62.30;;;;;;5024527;28;20827;-80
2021/09/01 10:17:50;;;;;;;8.70;7.90;;;20.00;62.30;;;;;;5033850;28;20487;-79
2021/09/01 10:20:22;;;;;;;8.63;7.83;;;19.60;63.00;;;;;;5035079;28;20489;-80
2021/09/01 10:23:00;;;;;;;8.20;7.40;;;19.70;62.20;;;;;;5052837;28;20473;-80
2021/09/01 10:25:36;;;;;;;7.80;7.03;;;19.90;60.70;;;;;;5036574;28;20420;-77
2021/09/01 10:28:34;;;;;;;7.60;6.83;;;20.00;60.60;;;;;;5037222;28;20505;-77
2021/09/01 10:31:21;;;;;;;9.50;7.90;;;20.10;60.50;;;;;;5031239;28;20925;-78
2021/09/01 10:33:51;;;;;;;7.80;6.50;;;20.30;58.90;;;;;;5024656;28;20519;-78
2021/09/01 10:36:37;;;;;;;8.77;7.17;;;20.50;59.10;;;;;;5031417;28;20505;-78
2021/09/01 10:39:16;;;;;;;9.23;6.57;;;20.40;59.00;;;;;;5036954;28;20985;-78
2021/09/01 10:41:45;;;;;;;8.50;7.60;;;20.50;59.10;;;;;;5032046;28;20449;-79
2021/09/01 10:44:20;;;;;;;7.70;6.90;;;20.30;57.60;;;;;;5042420;28;20449;-80
2021/09/01 10:47:00;;;;;;;8.20;7.40;;;20.40;59.00;;;;;;5037971;28;20461;-78
2021/09/01 10:49:28;;;;;;;7.80;7.10;;;20.30;58.90;;;;;;5032811;28;20556;-78
2021/09/01 10:52:02;;;;;;;9.93;6.70;;;20.60;58.00;;;;;;5034976;28;21946;-78
2021/09/01 10:54:31;;;;;;;7.50;6.80;;;20.80;56.00;;;;;;5028408;28;20484;-77
2021/09/01 10:57:00;;;;;;;8.33;7.47;;;20.90;55.30;;;;;;5032833;28;21249;-78
2021/09/01 10:59:28;;;;;;;7.20;6.50;;;21.00;55.00;;;;;;5050969;28;20543;-77
2021/09/01 11:02:08;;;;;;;8.00;7.20;;;21.00;54.70;;;;;;5035697;28;20506;-78
2021/09/01 11:04:36;;;;;;;8.17;7.37;;;21.20;56.10;;;;;;5019461;28;20464;-77
2021/09/01 11:07:03;;;;;;;7.73;7.00;;;21.20;54.60;;;;;;5041609;28;20482;-78
2021/09/01 11:09:30;;;;;;;7.43;6.60;;;20.90;54.60;;;;;;5046973;28;20605;-78
2021/09/01 11:11:59;;;;;;;9.80;6.70;;;21.10;54.30;;;;;;5052251;28;20451;-78
2021/09/01 11:14:36;;;;;;;6.43;5.83;;;21.30;52.90;;;;;;5055299;28;20447;-77
2021/09/01 11:17:05;;;;;;;8.10;6.97;;;21.70;51.40;;;;;;5036458;28;20571;-78
2021/09/01 11:19:32;;;;;;;8.30;6.83;;;21.80;50.50;;;;;;5030122;28;20568;-77
2021/09/01 11:22:03;;;;;;;6.60;6.00;;;21.90;50.60;;;;;;5023264;28;20542;-77
2021/09/01 11:24:30;;;;;;;7.37;6.50;;;22.00;49.50;;;;;;5040292;28;20538;-77
2021/09/01 11:26:58;;;;;;;7.00;6.30;;;21.90;50.60;;;;;;5051743;28;20796;-78
2021/09/01 11:29:34;;;;;;;7.13;6.23;;;22.00;50.70;;;;;;5037168;28;20516;-77
2021/09/01 11:32:01;;;;;;;7.53;6.30;;;22.20;48.50;;;;;;5032895;28;20800;-78
2021/09/01 11:34:28;;;;;;;7.80;6.40;;;21.60;49.90;;;;;;5020508;28;20492;-77
2021/09/01 11:36:55;;;;;;;6.27;5.77;;;21.70;48.80;;;;;;5013969;28;20734;-76
2021/09/01 11:39:22;;;;;;;5.80;5.30;;;22.00;49.80;;;;;;5017704;28;21059;-78
2021/09/01 11:41:58;;;;;;;6.93;5.60;;;21.80;48.60;;;;;;5015614;28;20484;-78
2021/09/01 11:44:25;;;;;;;6.23;5.63;;;21.70;46.30;;;;;;5025501;28;21015;-77
2021/09/01 11:46:53;;;;;;;6.30;5.70;;;22.00;45.60;;;;;;5028940;28;20435;-79
2021/09/01 11:49:21;;;;;;;6.97;5.63;;;22.20;44.70;;;;;;5022927;28;20564;-77
2021/09/01 11:51:49;;;;;;;6.57;5.87;;;22.30;45.40;;;;;;5028003;28;20428;-77
2021/09/01 11:54:17;;;;;;;6.43;5.80;;;22.30;40.90;;;;;;5035063;28;20483;-79
2021/09/01 11:56:44;;;;;;;5.80;5.30;;;22.00;41.70;;;;;;5033796;28;20457;-79
2021/09/01 11:59:13;;;;;;;5.37;4.87;;;22.30;43.40;;;;;;5021176;28;20446;-78
2021/09/01 12:01:45;;;;;;;5.73;4.90;;;22.50;41.10;;;;;;5015098;28;20465;-78
2021/09/01 12:04:16;;;;;;;9.00;5.67;;;22.50;42.30;;;;;;5032665;28;20463;-77
2021/09/01 12:06:45;;;;;;;7.77;6.00;;;22.70;41.30;;;;;;5032261;28;20939;-76
2021/09/01 12:09:14;;;;;;;5.70;5.17;;;22.90;41.50;;;;;;5031813;28;20516;-76
2021/09/01 12:11:49;;;;;;;6.17;5.57;;;22.20;42.60;;;;;;5032543;28;20743;-77
2021/09/01 12:14:18;;;;;;;6.80;5.43;;;22.30;44.30;;;;;;5015732;28;20456;-77
2021/09/01 12:16:45;;;;;;;5.90;5.27;;;22.10;43.30;;;;;;5017282;28;20493;-77
2021/09/01 12:19:14;;;;;;;7.13;5.30;;;22.10;44.40;;;;;;5017613;28;20473;-77
2021/09/01 12:21:47;;;;;;;8.43;5.03;;;22.30;41.00;;;;;;5033651;28;20426;-78
2021/09/01 12:24:16;;;;;;;7.27;5.30;;;22.40;41.00;;;;;;5030539;28;20525;-78
2021/09/01 12:26:59;;;;;;;5.80;5.20;;;22.20;43.50;;;;;;5038643;28;20543;-78
2021/09/01 12:29:32;;;;;;;5.10;4.63;;;22.40;41.10;;;;;;5038158;28;20911;-77
2021/09/01 12:32:01;;;;;;;5.90;5.30;;;22.50;41.10;;;;;;5046209;28;20452;-79
2021/09/01 12:34:38;;;;;;;6.43;5.30;;;22.70;40.50;;;;;;5054425;28;20453;-77
2021/09/01 12:37:11;;;;;;;6.27;4.97;;;23.00;40.00;;;;;;5049144;28;20877;-78
2021/09/01 12:39:43;;;;;;;5.33;4.60;;;22.90;40.40;;;;;;5019733;28;20564;-79